Time;durP1;ratioP1;P1;durP2;ratioP2;P2;SDS_P1;SDS_P2;PMS_P1;PMS_P2;Temp;Humidity;BMP_temperature;BMP_pressure;BME280_temperature;BME280_humidity;BME280_pressure;Samples;Min_cycle;Max_cycle;Signal;HPM_P1;HPM_P2
2023/06/18 00:00:40;;;;;;;0.95;0.85;;;;;;;14.14;77.72;99422.88;5033566;28;20116;-62
2023/06/18 00:03:09;;;;;;;1.03;0.93;;;;;;;14.16;77.96;99425.44;5033509;28;20148;-62
2023/06/18 00:05:40;;;;;;;0.95;0.88;;;;;;;14.17;78.05;99425.41;5033786;28;20072;-62
2023/06/18 00:08:09;;;;;;;2.75;1.52;;;;;;;14.25;77.81;99433.81;5034287;28;20045;-62
2023/06/18 00:10:37;;;;;;;0.60;0.60;;;;;;;14.28;77.70;99426.03;5033446;28;20061;-62
2023/06/18 00:13:07;;;;;;;0.47;0.47;;;;;;;14.33;77.34;99431.94;5033652;28;20057;-62
2023/06/18 00:15:35;;;;;;;1.30;1.20;;;;;;;14.39;76.74;99424.16;5033446;28;20054;-62
2023/06/18 00:18:05;;;;;;;2.38;1.25;;;;;;;14.37;76.88;99420.72;5033360;28;20053;-62
2023/06/18 00:20:34;;;;;;;1.95;1.73;;;;;;;14.33;76.85;99424.25;5033318;28;20041;-62
2023/06/18 00:23:05;;;;;;;1.50;1.40;;;;;;;14.38;76.38;99425.00;5035336;28;20132;-62
2023/06/18 00:25:33;;;;;;;1.42;1.02;;;;;;;14.42;76.64;99433.50;5037291;28;20103;-62
2023/06/18 00:28:02;;;;;;;1.65;1.40;;;;;;;14.40;76.20;99428.38;5037268;28;20108;-62
2023/06/18 00:30:31;;;;;;;2.00;1.07;;;;;;;14.47;76.23;99426.53;5036316;28;20557;-62
2023/06/18 00:33:01;;;;;;;0.88;0.88;;;;;;;14.42;75.72;99429.19;5052814;28;20300;-62
2023/06/18 00:35:31;;;;;;;0.63;0.63;;;;;;;14.31;75.77;99435.41;5052915;28;20084;-62
2023/06/18 00:38:02;;;;;;;1.23;1.13;;;;;;;14.18;76.25;99439.91;5037132;28;20128;-62
2023/06/18 00:40:33;;;;;;;1.08;1.00;;;;;;;13.95;76.74;99431.81;5052595;28;20042;-62
2023/06/18 00:43:03;;;;;;;1.48;1.35;;;;;;;13.78;76.71;99441.53;5036917;28;20056;-62
2023/06/18 00:45:34;;;;;;;1.17;1.08;;;;;;;13.63;77.46;99434.94;5036890;28;20136;-62
2023/06/18 00:48:10;;;;;;;0.82;0.80;;;;;;;13.59;77.91;99437.56;5036919;28;20107;-62
2023/06/18 00:50:40;;;;;;;4.60;1.42;;;;;;;13.35;78.07;99434.56;5036941;28;20084;-61
2023/06/18 00:53:12;;;;;;;2.22;1.30;;;;;;;13.36;78.82;99436.22;5052486;28;20462;-61
2023/06/18 00:55:43;;;;;;;0.63;0.63;;;;;;;13.28;78.96;99432.97;5052304;28;20041;-62
2023/06/18 00:58:13;;;;;;;1.35;1.25;;;;;;;13.26;79.26;99424.44;5036740;28;20065;-61
2023/06/18 01:00:43;;;;;;;;;;;;;;;13.19;79.40;99432.25;5036966;28;20053;-61
2023/06/18 01:03:18;;;;;;;0.73;0.73;;;;;;;13.16;79.51;99432.28;5037500;28;20020;-61
2023/06/18 01:05:51;;;;;;;3.70;1.48;;;;;;;13.08;79.70;99429.84;5052225;28;20052;-62
2023/06/18 01:08:23;;;;;;;0.82;0.80;;;;;;;12.87;79.99;99409.63;5036898;28;20492;-61
2023/06/18 01:11:01;;;;;;;1.38;0.82;;;;;;;13.05;80.38;99429.84;5036525;28;20056;-62
2023/06/18 01:13:32;;;;;;;1.23;0.98;;;;;;;13.12;80.21;99430.66;5051924;28;20061;-61
2023/06/18 01:16:05;;;;;;;2.30;1.65;;;;;;;13.14;80.36;99429.75;5052942;28;20045;-61
2023/06/18 01:18:39;;;;;;;1.00;0.93;;;;;;;13.23;80.66;99423.63;5051749;28;20056;-62
2023/06/18 01:21:11;;;;;;;0.70;0.70;;;;;;;13.34;80.07;99426.91;5051989;28;20052;-61
2023/06/18 01:23:49;;;;;;;0.93;0.90;;;;;;;13.38;79.96;99428.53;5036375;28;20124;-62
2023/06/18 01:26:22;;;;;;;0.85;0.85;;;;;;;13.40;80.11;99430.19;5051587;28;20049;-62
2023/06/18 01:28:52;;;;;;;1.08;0.98;;;;;;;13.38;80.45;99423.41;5036132;28;20076;-61
2023/06/18 01:31:22;;;;;;;1.38;1.27;;;;;;;13.42;80.42;99431.00;5036132;28;20068;-62
2023/06/18 01:33:53;;;;;;;0.95;0.80;;;;;;;13.41;80.30;99434.44;5050957;28;20092;-62
2023/06/18 01:36:34;;;;;;;1.42;1.27;;;;;;;13.43;79.99;99430.16;5036042;28;20061;-61
2023/06/18 01:39:11;;;;;;;2.13;1.30;;;;;;;13.58;79.95;99433.34;5051513;28;20488;-61
2023/06/18 01:41:47;;;;;;;2.20;1.92;;;;;;;13.65;79.79;99434.91;5051575;28;20041;-61
2023/06/18 01:44:24;;;;;;;3.13;1.20;;;;;;;13.58;79.41;99444.41;5036356;28;20076;-61
2023/06/18 01:46:56;;;;;;;1.63;1.05;;;;;;;13.53;79.40;99446.25;5034623;28;20041;-62
2023/06/18 01:49:26;;;;;;;0.82;0.82;;;;;;;13.58;79.37;99441.03;5035789;28;20103;-61
2023/06/18 01:51:57;;;;;;;1.05;0.95;;;;;;;13.69;79.60;99434.00;5035752;28;20060;-61
2023/06/18 01:54:28;;;;;;;0.75;0.75;;;;;;;13.58;79.18;99446.16;5036398;28;20045;-62
2023/06/18 01:56:59;;;;;;;1.00;0.93;;;;;;;13.47;79.38;99442.91;5034457;28;20049;-62
2023/06/18 01:59:27;;;;;;;1.38;0.98;;;;;;;13.42;79.57;99443.84;5050967;28;20042;-62
2023/06/18 02:01:56;;;;;;;1.00;0.93;;;;;;;13.43;79.54;99437.00;5050934;28;20053;-62
2023/06/18 02:04:25;;;;;;;0.67;0.67;;;;;;;13.58;79.57;99446.16;5035762;28;20484;-62
2023/06/18 02:06:55;;;;;;;0.90;0.90;;;;;;;13.51;79.34;99447.94;5035680;28;20080;-62
2023/06/18 02:09:24;;;;;;;;;;;;;;;13.32;79.51;99447.41;5051216;28;20130;-62
2023/06/18 02:11:53;;;;;;;0.63;0.63;;;;;;;13.22;79.40;99448.41;5035314;28;19921;-62
2023/06/18 02:14:23;;;;;;;1.60;1.08;;;;;;;13.33;79.41;99443.13;5051075;28;20442;-62
2023/06/18 02:16:55;;;;;;;0.52;0.52;;;;;;;13.34;78.99;99448.22;5050708;28;20064;-61
2023/06/18 02:19:26;;;;;;;1.17;1.05;;;;;;;13.28;79.05;99445.78;5035503;28;20046;-62
2023/06/18 02:21:55;;;;;;;1.80;1.70;;;;;;;13.33;78.76;99449.13;5035198;28;20565;-62
2023/06/18 02:24:24;;;;;;;0.93;0.93;;;;;;;13.30;78.55;99441.47;5035394;28;20049;-62
2023/06/18 02:26:54;;;;;;;0.70;0.70;;;;;;;13.34;78.38;99458.47;5035094;28;20045;-62
2023/06/18 02:29:24;;;;;;;1.07;1.03;;;;;;;13.28;78.19;99460.28;5050451;28;20054;-61
2023/06/18 02:31:53;;;;;;;1.58;1.48;;;;;;;13.25;78.72;99462.91;5035000;28;20045;-61
2023/06/18 02:34:27;;;;;;;0.70;0.70;;;;;;;13.18;78.67;99457.03;5034992;28;20053;-62
2023/06/18 02:36:57;;;;;;;0.90;0.82;;;;;;;13.06;78.70;99464.03;5034703;28;20061;-61
2023/06/18 02:39:26;;;;;;;;;;;;;;;12.97;79.21;99467.56;5034049;28;20041;-62
2023/06/18 02:41:55;;;;;;;0.77;0.75;;;;;;;12.89;79.17;99469.38;5034800;28;19927;-61
2023/06/18 02:44:28;;;;;;;0.93;0.93;;;;;;;12.79;79.41;99460.94;5035081;28;20049;-62
2023/06/18 02:46:57;;;;;;;4.72;1.70;;;;;;;12.88;79.78;99472.81;5049531;28;20479;-62
2023/06/18 02:49:27;;;;;;;0.67;0.67;;;;;;;12.93;79.79;99473.59;5034712;28;20107;-61
2023/06/18 02:51:56;;;;;;;1.13;0.80;;;;;;;12.97;79.71;99472.69;5050850;28;20656;-62
2023/06/18 02:54:25;;;;;;;3.70;2.00;;;;;;;12.97;79.97;99469.25;5050279;28;20080;-62
2023/06/18 02:56:55;;;;;;;1.00;0.93;;;;;;;13.07;79.45;99463.19;5049752;28;20128;-62
2023/06/18 02:59:26;;;;;;;0.50;0.50;;;;;;;13.19;79.18;99480.94;5033646;28;20065;-61
2023/06/18 03:01:55;;;;;;;0.70;0.70;;;;;;;13.08;79.29;99473.41;5049764;28;20043;-62
2023/06/18 03:04:23;;;;;;;0.50;0.50;;;;;;;12.98;79.08;99479.47;5033351;28;20045;-61
2023/06/18 03:06:52;;;;;;;0.80;0.80;;;;;;;12.89;79.25;99479.59;5049687;28;20136;-62
2023/06/18 03:09:21;;;;;;;0.50;0.50;;;;;;;12.88;79.67;99483.06;5049714;28;20069;-61
2023/06/18 03:11:51;;;;;;;;;;;;;;;12.89;80.00;99477.03;5050294;28;20033;-61
2023/06/18 03:14:21;;;;;;;1.50;1.27;;;;;;;12.97;80.01;99477.81;5033256;28;19936;-61
2023/06/18 03:16:52;;;;;;;1.45;1.35;;;;;;;13.08;79.65;99481.09;5034387;28;20069;-61
2023/06/18 03:19:22;;;;;;;0.57;0.50;;;;;;;13.09;79.74;99482.78;5034413;28;20045;-62
2023/06/18 03:21:52;;;;;;;0.82;0.80;;;;;;;13.19;79.60;99486.94;5049359;28;20057;-62
2023/06/18 03:24:21;;;;;;;2.08;1.60;;;;;;;13.26;78.93;99485.97;5034022;28;20053;-62
2023/06/18 03:26:50;;;;;;;0.98;0.88;;;;;;;13.06;78.92;99472.56;5049360;28;20054;-61
2023/06/18 03:29:22;;;;;;;2.38;1.88;;;;;;;13.10;79.12;99487.03;5033918;28;20049;-61
2023/06/18 03:31:52;;;;;;;5.80;1.00;;;;;;;13.08;79.41;99486.22;5033861;28;20137;-61
2023/06/18 03:34:22;;;;;;;0.93;0.93;;;;;;;13.06;79.94;99477.69;5049375;28;20053;-62
2023/06/18 03:36:51;;;;;;;0.55;0.55;;;;;;;13.20;80.03;99488.59;5032714;28;20218;-61
2023/06/18 03:39:22;;;;;;;1.50;0.95;;;;;;;13.30;79.60;99482.47;5049457;28;20044;-62
2023/06/18 03:41:52;;;;;;;1.13;1.00;;;;;;;13.43;79.89;99484.00;5032504;28;20042;-61
2023/06/18 03:44:22;;;;;;;0.82;0.82;;;;;;;13.53;79.24;99491.53;5034350;28;20045;-61
2023/06/18 03:46:53;;;;;;;1.10;1.00;;;;;;;13.54;79.14;99490.66;5033703;28;20565;-61
2023/06/18 03:49:23;;;;;;;1.25;1.08;;;;;;;13.58;79.73;99494.88;5033904;28;20411;-62
2023/06/18 03:51:53;;;;;;;2.08;0.70;;;;;;;13.62;79.43;99497.38;5049210;28;20495;-61
2023/06/18 03:54:24;;;;;;;1.03;0.93;;;;;;;13.63;79.46;99496.47;5032566;28;20045;-61
2023/06/18 03:56:53;;;;;;;1.20;1.10;;;;;;;13.72;79.83;99500.63;5033572;28;20049;-61
2023/06/18 03:59:22;;;;;;;1.10;1.00;;;;;;;13.82;79.50;99499.63;5033537;28;20049;-61
2023/06/18 04:01:53;;;;;;;1.10;1.00;;;;;;;13.92;79.55;99498.56;5033772;28;20792;-62
2023/06/18 04:04:23;;;;;;;0.60;0.60;;;;;;;14.01;79.00;99498.44;5033487;28;20107;-61
2023/06/18 04:06:51;;;;;;;2.77;0.93;;;;;;;14.11;79.18;99495.66;5033455;28;20056;-62
2023/06/18 04:09:20;;;;;;;3.00;1.70;;;;;;;14.17;78.33;99504.97;5033603;28;20049;-61
2023/06/18 04:11:49;;;;;;;3.85;1.33;;;;;;;14.26;78.20;99509.94;5049321;28;20037;-61
2023/06/18 04:14:19;;;;;;;3.65;1.05;;;;;;;14.29;78.13;99503.91;5033606;28;20049;-62
2023/06/18 04:16:50;;;;;;;0.85;0.80;;;;;;;14.05;78.50;99467.53;5033395;28;20045;-61
2023/06/18 04:19:21;;;;;;;0.80;0.75;;;;;;;14.26;78.49;99504.78;5048721;28;20514;-61
2023/06/18 04:21:50;;;;;;;1.52;1.42;;;;;;;14.23;78.58;99509.97;5049073;28;20080;-61
2023/06/18 04:24:19;;;;;;;0.87;0.87;;;;;;;14.29;79.06;99515.00;5048816;28;20053;-62
2023/06/18 04:26:49;;;;;;;0.77;0.77;;;;;;;14.41;78.56;99504.56;5033242;28;20370;-62
2023/06/18 04:29:18;;;;;;;1.13;1.02;;;;;;;14.51;78.13;99505.22;5048596;28;20046;-61
2023/06/18 04:31:47;;;;;;;1.37;1.27;;;;;;;14.61;77.96;99507.56;5049070;28;20077;-62
2023/06/18 04:34:16;;;;;;;0.65;0.65;;;;;;;14.55;77.98;99497.41;5048884;28;20063;-62
2023/06/18 04:36:46;;;;;;;0.90;0.83;;;;;;;14.85;77.45;99502.81;5033122;28;20081;-62
2023/06/18 04:39:16;;;;;;;1.05;0.90;;;;;;;15.00;77.43;99507.63;5048682;28;20056;-62
2023/06/18 04:41:46;;;;;;;1.40;1.00;;;;;;;15.05;77.20;99509.22;5048330;28;20038;-61
2023/06/18 04:44:15;;;;;;;2.00;1.77;;;;;;;15.08;77.22;99509.16;5048524;28;20052;-62
2023/06/18 04:46:45;;;;;;;0.60;0.60;;;;;;;15.23;77.08;99524.25;5033457;28;20292;-62
2023/06/18 04:49:15;;;;;;;0.80;0.80;;;;;;;15.45;77.08;99519.50;5048469;28;20072;-62
2023/06/18 04:51:47;;;;;;;1.40;1.27;;;;;;;15.67;76.76;99530.16;5033004;28;20047;-62
2023/06/18 04:54:18;;;;;;;1.45;0.93;;;;;;;15.85;76.17;99532.28;5033068;28;20045;-61
2023/06/18 04:56:47;;;;;;;0.57;0.57;;;;;;;15.93;75.71;99531.19;5048369;28;20078;-61
2023/06/18 04:59:17;;;;;;;1.77;1.42;;;;;;;16.03;75.28;99530.06;5048924;28;20132;-61
2023/06/18 05:01:46;;;;;;;0.88;0.88;;;;;;;16.22;75.38;99532.19;5032695;28;20042;-61
2023/06/18 05:04:16;;;;;;;1.40;1.30;;;;;;;16.30;74.41;99532.81;5032996;28;20052;-61
2023/06/18 05:06:47;;;;;;;0.47;0.47;;;;;;;16.40;74.41;99529.13;5032027;28;20058;-62
2023/06/18 05:09:16;;;;;;;0.88;0.85;;;;;;;16.54;73.88;99532.22;5033745;28;20053;-62
2023/06/18 05:11:45;;;;;;;0.82;0.82;;;;;;;16.62;73.79;99538.88;5036613;28;20116;-61
2023/06/18 05:14:14;;;;;;;0.73;0.73;;;;;;;16.80;73.34;99544.38;5035206;28;20049;-62
2023/06/18 05:16:43;;;;;;;0.80;0.80;;;;;;;16.87;73.11;99531.25;5036433;28;20045;-62
2023/06/18 05:19:13;;;;;;;0.77;0.77;;;;;;;16.98;72.80;99544.72;5036362;28;20057;-62
2023/06/18 05:21:44;;;;;;;1.40;1.30;;;;;;;17.11;72.38;99530.56;5035830;28;20056;-62
2023/06/18 05:24:14;;;;;;;2.85;2.35;;;;;;;17.13;72.47;99523.63;5035099;28;20045;-63
2023/06/18 05:26:43;;;;;;;0.93;0.73;;;;;;;17.23;72.00;99535.34;5036778;28;20487;-62
2023/06/18 05:29:13;;;;;;;0.68;0.68;;;;;;;17.39;71.96;99541.75;5034989;28;20046;-62
2023/06/18 05:31:47;;;;;;;1.85;1.05;;;;;;;17.39;71.68;99535.75;5036422;28;20073;-62
2023/06/18 05:34:23;;;;;;;0.70;0.70;;;;;;;17.46;71.36;99536.41;5036358;28;20123;-62
2023/06/18 05:36:52;;;;;;;0.93;0.80;;;;;;;17.55;71.18;99530.97;5034342;28;20081;-62
2023/06/18 05:39:23;;;;;;;1.08;0.98;;;;;;;17.60;70.99;99545.44;5035109;28;20258;-62
2023/06/18 05:41:52;;;;;;;1.38;1.00;;;;;;;17.60;71.08;99555.75;5034991;28;20056;-63
2023/06/18 05:44:23;;;;;;;0.95;0.80;;;;;;;17.78;70.91;99559.50;5034701;28;20152;-62
2023/06/18 05:46:52;;;;;;;1.10;1.00;;;;;;;17.86;70.56;99562.66;5034740;28;20049;-62
2023/06/18 05:49:22;;;;;;;3.13;2.28;;;;;;;17.92;70.32;99557.31;5034662;28;20496;-62
2023/06/18 05:51:51;;;;;;;10.73;1.25;;;;;;;18.04;69.55;99572.41;5035825;28;20562;-63
2023/06/18 05:54:22;;;;;;;1.10;0.85;;;;;;;18.08;69.07;99569.69;5035872;28;20137;-62
2023/06/18 05:56:51;;;;;;;2.72;1.25;;;;;;;18.19;68.99;99563.31;5035948;28;20053;-63
2023/06/18 05:59:21;;;;;;;1.48;0.73;;;;;;;18.28;68.65;99563.84;5034442;28;20056;-62
2023/06/18 06:01:56;;;;;;;0.80;0.80;;;;;;;18.35;68.37;99564.50;5035526;28;20048;-62
2023/06/18 06:04:25;;;;;;;1.25;1.15;;;;;;;18.49;68.29;99560.56;5035918;28;20045;-62
2023/06/18 06:06:55;;;;;;;1.80;1.42;;;;;;;18.62;67.94;99561.81;5035475;28;20447;-62
2023/06/18 06:09:26;;;;;;;1.23;1.13;;;;;;;18.73;68.05;99554.53;5034336;28;20045;-62
2023/06/18 06:11:56;;;;;;;0.82;0.82;;;;;;;18.85;67.60;99552.41;5035394;28;20072;-62
2023/06/18 06:14:26;;;;;;;0.80;0.80;;;;;;;18.93;67.35;99545.22;5034056;28;20053;-62
2023/06/18 06:16:57;;;;;;;1.05;0.88;;;;;;;19.16;66.81;99547.78;5034096;28;20121;-62
2023/06/18 06:19:28;;;;;;;2.95;2.03;;;;;;;19.32;66.42;99548.88;5035200;28;20053;-62
2023/06/18 06:21:57;;;;;;;0.55;0.55;;;;;;;19.31;65.43;99542.88;5034009;28;20128;-62
2023/06/18 06:24:29;;;;;;;0.65;0.65;;;;;;;19.42;64.87;99546.81;5035154;28;20045;-62
2023/06/18 06:26:59;;;;;;;1.25;1.15;;;;;;;19.50;64.34;99548.22;5034222;28;20151;-62
2023/06/18 06:29:30;;;;;;;0.93;0.93;;;;;;;19.62;64.03;99539.97;5035059;28;20051;-63
2023/06/18 06:31:59;;;;;;;4.55;0.73;;;;;;;19.80;63.65;99544.41;5034079;28;20140;-63
2023/06/18 06:34:29;;;;;;;0.70;0.70;;;;;;;19.89;62.91;99546.59;5033820;28;20045;-63
2023/06/18 06:36:58;;;;;;;0.82;0.68;;;;;;;19.89;62.25;99540.59;5035102;28;20067;-63
2023/06/18 06:39:29;;;;;;;1.77;1.25;;;;;;;19.88;62.12;99539.75;5017405;28;20080;-63
2023/06/18 06:41:58;;;;;;;1.00;0.82;;;;;;;20.05;61.98;99550.28;5033561;28;20487;-63
2023/06/18 06:44:31;;;;;;;1.23;1.13;;;;;;;20.14;61.73;99536.09;5034989;28;20470;-63
2023/06/18 06:47:11;;;;;;;0.80;0.80;;;;;;;20.32;61.80;99550.06;5034877;28;20041;-63
2023/06/18 06:49:58;;;;;;;1.38;1.15;;;;;;;20.40;61.40;99537.59;5034878;28;20056;-63
2023/06/18 06:52:34;;;;;;;0.80;0.80;;;;;;;20.53;61.41;99538.75;5033421;28;20041;-63
2023/06/18 06:55:05;;;;;;;2.60;1.15;;;;;;;20.59;61.64;99533.28;5034547;28;20104;-63
2023/06/18 06:57:34;;;;;;;1.33;0.70;;;;;;;20.68;61.48;99548.47;5034721;28;20041;-63
2023/06/18 07:00:06;;;;;;;0.68;0.68;;;;;;;20.78;60.79;99548.91;5033859;28;20060;-63
2023/06/18 07:02:35;;;;;;;1.55;1.30;;;;;;;20.94;60.55;99544.72;5033151;28;20391;-63
2023/06/18 07:05:06;;;;;;;1.40;1.27;;;;;;;21.15;60.20;99549.81;5033466;28;20048;-63
2023/06/18 07:07:35;;;;;;;1.75;0.85;;;;;;;21.21;60.41;99541.72;5034267;28;20045;-63
2023/06/18 07:10:06;;;;;;;0.80;0.80;;;;;;;21.27;60.47;99541.47;5034187;28;20053;-63
2023/06/18 07:12:35;;;;;;;1.00;0.90;;;;;;;21.42;59.93;99541.66;5034357;28;20042;-64
2023/06/18 07:15:05;;;;;;;1.48;0.85;;;;;;;21.54;59.90;99541.91;5034244;28;20049;-64
2023/06/18 07:17:34;;;;;;;1.85;1.38;;;;;;;21.72;59.08;99540.19;5034483;28;20443;-64
2023/06/18 07:20:03;;;;;;;2.05;0.95;;;;;;;21.80;58.70;99535.47;5034317;28;20050;-64
2023/06/18 07:22:33;;;;;;;0.50;0.50;;;;;;;21.95;58.26;99530.38;5034249;28;20041;-64
2023/06/18 07:25:02;;;;;;;1.85;0.95;;;;;;;21.97;58.07;99530.31;5034253;28;20128;-64
2023/06/18 07:27:32;;;;;;;1.02;1.00;;;;;;;21.93;58.04;99523.59;5033992;28;20046;-64
2023/06/18 07:30:01;;;;;;;3.88;1.65;;;;;;;21.93;57.93;99528.78;5033989;28;20069;-64
2023/06/18 07:32:31;;;;;;;1.30;1.02;;;;;;;22.03;57.61;99524.78;5033344;28;20037;-64
2023/06/18 07:35:00;;;;;;;0.98;0.85;;;;;;;22.10;57.57;99525.34;5033928;28;20144;-64
2023/06/18 07:37:29;;;;;;;0.90;0.85;;;;;;;22.23;56.39;99524.66;5034291;28;20056;-64
2023/06/18 07:39:58;;;;;;;0.85;0.85;;;;;;;22.40;55.56;99524.63;5034080;28;20041;-64
2023/06/18 07:42:27;;;;;;;0.40;0.40;;;;;;;22.52;54.47;99521.41;5033922;28;20049;-64
2023/06/18 07:44:57;;;;;;;1.13;1.02;;;;;;;22.76;54.02;99521.91;5033945;28;20048;-64
2023/06/18 07:47:26;;;;;;;0.73;0.73;;;;;;;22.95;53.57;99511.34;5033725;28;20450;-64
2023/06/18 07:49:55;;;;;;;0.93;0.88;;;;;;;22.99;53.25;99513.69;5033567;28;20057;-64
2023/06/18 07:52:24;;;;;;;0.50;0.50;;;;;;;22.92;52.74;99501.94;5033653;28;20554;-64
2023/06/18 07:54:53;;;;;;;0.50;0.50;;;;;;;22.97;52.72;99517.31;5033818;28;20571;-64
2023/06/18 07:57:22;;;;;;;0.77;0.70;;;;;;;23.01;52.15;99506.66;5033546;28;20495;-63
2023/06/18 07:59:51;;;;;;;0.93;0.70;;;;;;;23.07;52.29;99516.75;5033778;28;20467;-64
2023/06/18 08:02:21;;;;;;;0.40;0.40;;;;;;;23.19;51.48;99518.69;5033795;28;20051;-64
2023/06/18 08:04:50;;;;;;;0.63;0.50;;;;;;;23.22;51.18;99515.06;5033480;28;20041;-65
2023/06/18 08:07:19;;;;;;;0.80;0.75;;;;;;;23.25;50.76;99510.50;5033742;28;20404;-64
2023/06/18 08:09:48;;;;;;;0.65;0.60;;;;;;;23.40;50.80;99514.06;5033519;28;20511;-63
2023/06/18 08:12:17;;;;;;;0.40;0.40;;;;;;;23.51;50.01;99514.34;5033422;28;20045;-64
2023/06/18 08:14:46;;;;;;;1.52;0.95;;;;;;;23.53;50.26;99515.06;5034019;28;20436;-64
2023/06/18 08:17:17;;;;;;;;;;;;;;;23.66;50.25;99512.63;5033744;28;20046;-64
2023/06/18 08:19:47;;;;;;;1.08;0.98;;;;;;;23.80;50.24;99518.72;5033424;28;19928;-64
2023/06/18 08:22:17;;;;;;;1.00;0.80;;;;;;;23.92;51.13;99518.00;5032891;28;20083;-66
2023/06/18 08:24:46;;;;;;;0.80;0.80;;;;;;;23.82;50.35;99511.66;5033565;28;20069;-64
2023/06/18 08:27:15;;;;;;;1.08;0.70;;;;;;;23.81;49.98;99504.75;5032259;28;20065;-65
2023/06/18 08:29:44;;;;;;;0.90;0.85;;;;;;;24.02;49.64;99509.66;5033461;28;20049;-64
2023/06/18 08:32:13;;;;;;;0.47;0.47;;;;;;;23.99;49.26;99514.09;5033771;28;20494;-64
2023/06/18 08:34:45;;;;;;;1.13;0.80;;;;;;;24.02;49.04;99508.72;5033420;28;20484;-64
2023/06/18 08:37:16;;;;;;;0.40;0.40;;;;;;;23.88;49.25;99513.91;5033138;28;20054;-64
2023/06/18 08:39:45;;;;;;;1.27;0.52;;;;;;;23.99;48.88;99497.66;5032677;28;20056;-64
2023/06/18 08:42:20;;;;;;;2.63;1.13;;;;;;;24.30;49.21;99505.38;5032444;28;20041;-65
2023/06/18 08:44:50;;;;;;;1.25;0.60;;;;;;;24.39;49.06;99506.59;5015366;28;20462;-64
2023/06/18 08:47:19;;;;;;;1.13;1.13;;;;;;;24.49;49.04;99502.50;5035927;28;20053;-65
2023/06/18 08:49:50;;;;;;;;;;;;;;;24.67;48.21;99508.38;5036980;28;20048;-65
2023/06/18 08:52:22;;;;;;;1.77;0.93;;;;;;;24.67;47.72;99513.59;5036671;28;19924;-65
2023/06/18 08:54:55;;;;;;;0.82;0.82;;;;;;;24.74;48.25;99513.09;5036512;28;20045;-64
2023/06/18 08:57:31;;;;;;;0.98;0.80;;;;;;;24.95;48.03;99511.84;5032793;28;20038;-64
2023/06/18 09:00:03;;;;;;;1.48;0.77;;;;;;;25.02;47.65;99512.28;5036792;28;20045;-64
2023/06/18 09:02:32;;;;;;;1.45;1.15;;;;;;;25.00;47.24;99508.94;5036808;28;20037;-64
2023/06/18 09:05:02;;;;;;;0.60;0.60;;;;;;;25.18;47.22;99513.00;5036533;28;20050;-64
2023/06/18 09:07:33;;;;;;;1.27;0.93;;;;;;;25.46;48.48;99506.91;5036697;28;20060;-65
2023/06/18 09:10:06;;;;;;;0.57;0.57;;;;;;;25.71;49.13;99501.75;5036903;28;20072;-65
2023/06/18 09:12:35;;;;;;;0.70;0.70;;;;;;;26.10;49.62;99509.59;5036542;28;20046;-64
2023/06/18 09:15:04;;;;;;;0.63;0.63;;;;;;;26.22;49.73;99508.78;5036370;28;20121;-64
2023/06/18 09:17:35;;;;;;;0.75;0.75;;;;;;;26.23;49.41;99514.84;5036411;28;20052;-64
2023/06/18 09:20:07;;;;;;;0.50;0.50;;;;;;;26.28;48.29;99516.22;5036563;28;20076;-64
2023/06/18 09:22:47;;;;;;;0.80;0.77;;;;;;;26.15;47.58;99518.00;5036415;28;20044;-64
2023/06/18 09:25:20;;;;;;;0.73;0.73;;;;;;;25.74;47.29;99517.25;5036240;28;20042;-64
2023/06/18 09:34:22;;;;;;;0.45;0.45;;;;;;;26.00;46.90;99518.13;5132861;27;20371;-63
2023/06/18 09:36:52;;;;;;;0.70;0.70;;;;;;;25.98;46.87;99515.63;5131828;28;20043;-65
2023/06/18 09:39:23;;;;;;;0.82;0.73;;;;;;;25.87;47.69;99512.88;5132457;28;20051;-64
2023/06/18 09:41:55;;;;;;;1.85;0.85;;;;;;;25.76;47.80;99512.75;5131930;27;20047;-65
2023/06/18 09:44:25;;;;;;;3.55;1.52;;;;;;;25.78;47.46;99509.09;5131660;28;20054;-65
2023/06/18 09:46:58;;;;;;;0.60;0.60;;;;;;;25.69;47.13;99508.84;5131884;27;20043;-64
2023/06/18 09:49:31;;;;;;;0.85;0.85;;;;;;;25.78;47.01;99498.63;5130733;28;20489;-64
2023/06/18 09:52:08;;;;;;;0.80;0.80;;;;;;;25.92;47.34;99490.72;5131588;27;20054;-64
2023/06/18 09:54:41;;;;;;;0.60;0.60;;;;;;;26.07;47.22;99504.53;5131674;27;20040;-65
2023/06/18 09:57:13;;;;;;;0.60;0.60;;;;;;;26.17;47.86;99492.56;5131911;27;20444;-64
2023/06/18 09:59:42;;;;;;;1.02;0.95;;;;;;;26.21;47.98;99493.19;5131454;27;20047;-65
2023/06/18 10:02:13;;;;;;;0.82;0.82;;;;;;;26.13;46.81;99491.06;5131383;28;20053;-65
2023/06/18 10:04:44;;;;;;;1.08;0.80;;;;;;;26.24;47.28;99491.19;5131542;27;20047;-64
2023/06/18 10:07:15;;;;;;;0.85;0.77;;;;;;;26.59;47.07;99487.00;5130345;28;20055;-64
2023/06/18 10:09:47;;;;;;;1.25;1.05;;;;;;;26.81;46.46;99480.28;5130459;28;20108;-64
2023/06/18 10:12:18;;;;;;;0.55;0.50;;;;;;;26.96;45.88;99484.44;5131063;27;20047;-65
2023/06/18 10:14:49;;;;;;;0.75;0.65;;;;;;;26.97;44.53;99488.75;5131453;27;20488;-64
2023/06/18 15:40:23;;;;;;;1.15;1.05;;;;;;;27.02;41.93;99358.22;5132634;27;20398;-64
2023/06/18 15:42:52;;;;;;;0.77;0.68;;;;;;;27.01;40.08;99367.06;5130905;28;20043;-64
2023/06/18 15:45:21;;;;;;;0.45;0.45;;;;;;;26.93;41.15;99364.13;5132247;27;20118;-64
2023/06/18 15:47:51;;;;;;;0.80;0.80;;;;;;;26.77;42.01;99368.81;5132266;27;20047;-64
2023/06/18 15:50:20;;;;;;;0.50;0.50;;;;;;;26.69;41.75;99361.47;5131787;27;20374;-64
2023/06/18 15:52:49;;;;;;;0.80;0.80;;;;;;;26.72;43.22;99361.28;5131780;27;20039;-64
2023/06/18 15:55:22;;;;;;;0.60;0.60;;;;;;;26.76;41.71;99361.91;5132015;28;20617;-64
2023/06/18 15:57:51;;;;;;;0.45;0.40;;;;;;;26.83;41.35;99363.97;5131679;27;20052;-64
2023/06/18 16:00:20;;;;;;;0.80;0.80;;;;;;;26.85;39.86;99371.75;5131554;28;20475;-64
2023/06/18 16:02:49;;;;;;;0.70;0.70;;;;;;;26.86;38.93;99368.16;5131777;27;20028;-64
2023/06/18 16:05:18;;;;;;;1.85;0.82;;;;;;;26.85;38.78;99375.16;5131800;27;20047;-64
2023/06/18 16:07:47;;;;;;;0.80;0.80;;;;;;;26.85;39.48;99366.50;5131443;27;20047;-64
2023/06/18 16:10:16;;;;;;;2.22;1.58;;;;;;;26.89;39.35;99362.69;5131350;28;20047;-64
2023/06/18 16:12:46;;;;;;;0.70;0.70;;;;;;;26.96;41.67;99358.69;5131343;27;20092;-64
2023/06/18 16:15:15;;;;;;;0.50;0.50;;;;;;;26.91;42.88;99360.81;5131313;27;20439;-64
2023/06/18 16:17:44;;;;;;;1.55;0.70;;;;;;;26.87;42.47;99364.59;5131361;27;20493;-64
2023/06/18 16:20:13;;;;;;;;;;;;;;;26.80;43.24;99363.38;5131850;27;20036;-64
2023/06/18 16:22:42;;;;;;;0.50;0.50;;;;;;;26.74;43.52;99369.84;5131209;27;19926;-64
2023/06/18 16:25:12;;;;;;;1.23;0.85;;;;;;;26.69;42.80;99360.63;5131384;27;20557;-64
2023/06/18 16:27:41;;;;;;;5.60;0.80;;;;;;;26.69;42.54;99365.88;5131075;27;20085;-64
2023/06/18 16:30:12;;;;;;;0.68;0.68;;;;;;;26.63;42.59;99357.50;5131038;28;20044;-64
2023/06/18 16:32:42;;;;;;;0.50;0.50;;;;;;;26.59;43.87;99366.53;5131278;28;20123;-64
2023/06/18 16:35:10;;;;;;;0.63;0.63;;;;;;;26.57;42.34;99363.19;5129770;28;20123;-64
2023/06/18 16:37:39;;;;;;;0.70;0.68;;;;;;;26.52;42.01;99367.94;5131033;27;20028;-64
2023/06/18 16:40:09;;;;;;;0.40;0.40;;;;;;;26.54;42.43;99367.81;5130551;28;20047;-64
2023/06/18 16:42:38;;;;;;;1.83;1.15;;;;;;;26.50;41.10;99364.59;5130833;27;20496;-64
2023/06/18 16:45:08;;;;;;;0.60;0.60;;;;;;;26.53;41.23;99367.00;5130714;28;20480;-64
2023/06/18 16:47:38;;;;;;;0.80;0.80;;;;;;;26.49;41.13;99370.75;5131047;27;20434;-64
2023/06/18 16:50:08;;;;;;;0.60;0.60;;;;;;;26.43;42.21;99365.97;5126429;27;20052;-64
2023/06/18 16:52:37;;;;;;;0.57;0.57;;;;;;;26.38;42.88;99362.84;5116995;28;20067;-64
2023/06/18 16:55:07;;;;;;;0.95;0.80;;;;;;;26.33;42.78;99358.84;5116770;28;20035;-64
2023/06/18 16:57:37;;;;;;;0.63;0.63;;;;;;;26.29;42.05;99363.47;5117154;28;20044;-64
2023/06/18 17:00:07;;;;;;;0.73;0.65;;;;;;;26.26;41.96;99368.94;5116486;28;20046;-64
2023/06/18 17:02:36;;;;;;;0.70;0.70;;;;;;;26.21;41.75;99365.78;5117031;28;20052;-64
2023/06/18 17:05:07;;;;;;;1.23;0.77;;;;;;;26.17;42.42;99368.72;5116650;28;20048;-64
2023/06/18 17:07:36;;;;;;;0.50;0.50;;;;;;;26.07;43.31;99368.50;5116572;28;20050;-64
2023/06/18 17:10:06;;;;;;;0.80;0.65;;;;;;;25.94;43.76;99367.66;5116506;28;20055;-64
2023/06/18 17:12:35;;;;;;;0.50;0.50;;;;;;;25.89;43.07;99364.53;5117104;28;20050;-64
2023/06/18 17:15:05;;;;;;;0.40;0.40;;;;;;;25.86;42.95;99369.97;5117077;28;20044;-63
2023/06/18 17:17:34;;;;;;;1.23;1.02;;;;;;;25.83;42.12;99365.78;5116463;28;20040;-64